Stations météo

réclame
Mon MeteoGroup
Reinosa, Espagne (8032): Température de l'air & dewpoint: 16.10.2017 04:00:00 - 22.10.2017 04:00:00 (CEST)Reinosa, Espagne (8032): Vitesse du vent & gusts: 16.10.2017 04:00:00 - 22.10.2017 04:00:00 (CEST)Reinosa, Espagne (8032): Direction du vent: 16.10.2017 04:00:00 - 22.10.2017 04:00:00 (CEST)Reinosa, Espagne (8032): Quantités de précipitations: 16.10.2017 04:00:00 - 22.10.2017 04:00:00 (CEST)
Date & Time tt [°C] td [°C] ff [km/h] ff [knt] fx [km/h] fx [knt] dd rr [mm]
22.10.2017 04:00:00 1,3 0,4 7 4 8 5 WSW 0,0
22.10.2017 03:00:00 2,1 1,1 3 2 10 5 WSW 0,0
22.10.2017 02:00:00 3,5 2,3 2 1 6 4 W -
22.10.2017 01:00:00 5,9 4,5 2 1 6 3 SW 0,0
22.10.2017 00:00:00 7,8 5,8 1 1 7 4 SE 0,0
21.10.2017 23:00:00 7,9 5,5 0 0 10 5 S 0,0
21.10.2017 22:00:00 8,7 5,3 1 1 13 7 SW 0,0
21.10.2017 21:00:00 9,3 6,1 8 4 28 15 NNE 0,0
21.10.2017 20:00:00 9,8 5,9 4 2 14 7 WNW -
21.10.2017 19:00:00 10,0 5,9 4 2 16 8 NW 0,0
21.10.2017 18:00:00 10,3 6,8 6 4 24 13 NE 0,0
21.10.2017 17:00:00 11,3 6,1 7 4 29 15 NNE 0,0
21.10.2017 16:00:00 11,9 4,3 16 9 27 15 NE 0,0
21.10.2017 15:00:00 13,7 4,8 7 4 21 11 NNW 0,0
21.10.2017 14:00:00 12,6 5,9 1 1 13 7 ESE -
21.10.2017 13:00:00 11,8 6,7 2 1 8 5 ENE 0,0
21.10.2017 12:00:00 10,3 8,4 4 2 9 5 SW 0,0
21.10.2017 11:00:00 9,5 8,5 5 3 9 5 SE 0,1
21.10.2017 10:00:00 9,5 8,5 3 2 19 11 NE 0,0
21.10.2017 09:00:00 9,4 8,5 12 7 26 14 ENE 0,1
21.10.2017 08:00:00 10,5 9,4 13 7 24 13 ENE -
21.10.2017 07:00:00 11,5 10,4 15 8 25 14 NE 0,5
21.10.2017 06:00:00 12,2 11,0 16 8 20 11 E 0,0
21.10.2017 05:00:00 15,3 10,5 16 9 27 14 S 0,0
21.10.2017 04:00:00 14,9 10,6 16 8 24 13 S 0,0
21.10.2017 03:00:00 14,9 10,5 13 7 28 15 S 0,0
21.10.2017 02:00:00 16,0 9,9 13 7 33 18 SSW -
21.10.2017 01:00:00 16,6 10,4 16 9 30 16 SW 0,0
21.10.2017 00:00:00 17,1 10,0 7 4 35 19 W 0,0
20.10.2017 23:00:00 17,5 8,9 13 7 41 22 SSW 0,0
20.10.2017 22:00:00 17,4 7,4 7 4 39 21 SW 0,0
20.10.2017 21:00:00 16,8 7,4 19 10 34 18 SSW 0,0
20.10.2017 20:00:00 16,8 7,1 15 8 32 17 SSW -
20.10.2017 19:00:00 17,9 6,4 11 6 37 20 SW 0,0
20.10.2017 18:00:00 19,3 6,4 18 10 39 21 SSW 0,0
20.10.2017 17:00:00 19,2 6,2 21 12 40 22 S 0,0
20.10.2017 16:00:00 19,2 5,3 23 12 41 22 S 0,0
20.10.2017 15:00:00 19,3 6,1 16 9 34 19 S 0,0
20.10.2017 14:00:00 17,8 5,8 16 9 40 22 S -
20.10.2017 13:00:00 16,6 7,3 16 9 36 19 S 0,0
20.10.2017 12:00:00 15,9 7,4 16 9 36 19 SW 0,0
20.10.2017 11:00:00 13,1 7,7 15 8 31 17 S 0,0
20.10.2017 10:00:00 9,9 8,5 4 2 11 6 SW 0,0
20.10.2017 09:00:00 8,0 6,8 1 1 10 5 SW 0,0
20.10.2017 08:00:00 7,9 6,5 2 1 8 4 NW -
20.10.2017 07:00:00 7,4 5,9 7 4 21 11 W 0,0
20.10.2017 06:00:00 8,0 6,2 8 4 16 8 SW 0,0
20.10.2017 05:00:00 7,0 5,6 5 3 8 5 WNW 0,0
20.10.2017 04:00:00 6,5 5,0 6 3 10 6 W 0,0
20.10.2017 03:00:00 7,2 5,3 1 1 7 4 WNW 0,0
20.10.2017 02:00:00 7,4 5,6 4 2 9 5 S -
20.10.2017 01:00:00 7,5 5,5 4 2 8 5 S 0,0
20.10.2017 00:00:00 6,5 4,3 1 1 8 4 NW 0,0
19.10.2017 23:00:00 8,6 4,8 1 1 13 7 N 0,0
19.10.2017 22:00:00 10,0 4,8 4 2 15 8 SW 0,0
19.10.2017 21:00:00 11,4 3,9 7 4 21 12 S 0,0
19.10.2017 20:00:00 12,9 3,8 7 4 16 8 SSE -
19.10.2017 19:00:00 14,5 2,7 5 3 29 16 S 0,0
19.10.2017 18:00:00 14,9 2,1 13 7 30 16 SSW 0,0
19.10.2017 17:00:00 16,3 1,9 14 7 33 18 SSW 0,0
19.10.2017 16:00:00 16,6 2,9 17 9 36 20 SSW 0,0
19.10.2017 15:00:00 15,3 3,0 17 9 35 19 S 0,0
19.10.2017 14:00:00 14,4 3,6 16 8 29 15 S -
19.10.2017 13:00:00 13,6 3,6 13 7 29 16 S 0,0
19.10.2017 12:00:00 13,0 4,1 9 5 24 13 S 0,0
19.10.2017 11:00:00 10,0 5,9 18 10 26 14 SSE 0,0
19.10.2017 10:00:00 7,6 6,2 4 2 8 5 NNE 0,0
19.10.2017 09:00:00 4,4 3,2 3 2 11 6 S 0,0
19.10.2017 08:00:00 5,1 4,1 2 1 10 5 N -
19.10.2017 07:00:00 6,9 5,8 0 0 8 4 N 0,0
19.10.2017 06:00:00 6,7 5,6 4 2 6 4 NW 0,0
19.10.2017 05:00:00 7,2 5,9 2 1 6 3 SSW 0,0
19.10.2017 04:00:00 7,1 6,1 2 1 5 3 W 0,0
19.10.2017 03:00:00 6,9 5,6 3 2 5 3 WNW 0,0
19.10.2017 02:00:00 7,2 5,6 1 1 8 4 SSW -
19.10.2017 01:00:00 7,8 6,1 5 3 9 5 SSE 0,0
19.10.2017 00:00:00 8,2 5,5 3 1 13 7 SSW 0,0
18.10.2017 23:00:00 8,0 6,2 4 2 7 4 S 0,0
18.10.2017 22:00:00 8,2 6,4 1 1 16 8 SSW 0,0
18.10.2017 21:00:00 8,1 5,8 9 5 22 12 NW 1,0
18.10.2017 20:00:00 8,2 6,8 5 3 11 6 NNW -
18.10.2017 19:00:00 8,8 7,3 5 3 28 15 NW 1,8
18.10.2017 18:00:00 10,0 7,4 16 9 26 14 NE 0,0
18.10.2017 17:00:00 12,8 6,1 2 1 24 13 S 0,0
18.10.2017 16:00:00 12,5 6,1 13 7 24 13 SSW 0,0
18.10.2017 15:00:00 11,1 6,4 12 6 26 14 S 0,0
18.10.2017 14:00:00 11,4 5,3 9 5 30 16 SSW -
18.10.2017 13:00:00 11,8 4,8 16 9 27 15 SSW 0,0
18.10.2017 12:00:00 10,4 5,9 14 8 26 14 SSW 0,0
18.10.2017 11:00:00 10,1 6,2 7 4 19 10 S 0,0
18.10.2017 10:00:00 9,7 5,9 7 4 22 12 S 0,0
18.10.2017 09:00:00 8,2 5,1 13 7 21 12 SSE 0,0
18.10.2017 08:00:00 7,6 4,5 1 1 15 8 SE -
18.10.2017 07:00:00 7,9 3,9 9 5 22 12 S 0,0
18.10.2017 06:00:00 8,8 4,5 11 6 31 17 S 0,0
18.10.2017 05:00:00 9,8 5,0 13 7 29 16 S 0,0
18.10.2017 04:00:00 10,8 5,6 13 7 26 14 S 0,0
18.10.2017 03:00:00 11,9 5,3 11 6 33 18 S 0,0
18.10.2017 02:00:00 12,6 7,8 16 9 34 18 S -
18.10.2017 01:00:00 13,2 8,5 14 7 29 16 S 0,0
18.10.2017 00:00:00 13,4 8,7 13 7 24 13 S 0,1
17.10.2017 23:00:00 14,1 8,1 6 4 25 13 S 0,0
17.10.2017 22:00:00 14,9 8,4 15 8 34 19 SW 0,0
17.10.2017 21:00:00 14,7 9,3 10 5 29 16 SW 0,0
17.10.2017 20:00:00 14,6 11,8 12 6 29 15 SSE -
17.10.2017 19:00:00 14,9 10,9 13 7 37 20 SSW 0,0
17.10.2017 18:00:00 14,8 11,0 18 10 49 26 SSW 0,4
17.10.2017 17:00:00 15,1 10,3 21 11 46 25 S 0,2
17.10.2017 16:00:00 18,5 7,3 15 8 40 21 SSW 0,0
17.10.2017 15:00:00 17,4 7,7 18 10 41 22 SSW 0,0
17.10.2017 14:00:00 18,1 4,6 17 9 48 26 S -
17.10.2017 13:00:00 18,5 4,3 18 10 48 26 S 0,0
17.10.2017 12:00:00 16,4 3,0 16 9 38 20 S 0,0
17.10.2017 11:00:00 16,8 3,0 17 9 60 33 S 0,0
17.10.2017 10:00:00 15,9 3,4 20 11 41 22 SSW 0,0
17.10.2017 09:00:00 15,0 3,2 16 9 35 19 S 0,0
17.10.2017 08:00:00 15,0 2,9 16 9 36 20 S -
17.10.2017 07:00:00 15,3 3,0 18 10 33 18 S 0,0
17.10.2017 06:00:00 14,7 4,1 11 6 29 15 SSE 0,0
17.10.2017 05:00:00 11,5 6,2 6 3 10 6 E 0,0
17.10.2017 04:00:00 9,6 8,5 1 1 9 5 NNE 0,0
17.10.2017 03:00:00 9,7 8,7 0 0 5 3 N 0,0
17.10.2017 02:00:00 8,9 7,7 2 1 5 3 WNW -
17.10.2017 01:00:00 8,9 7,7 1 1 5 3 NNE 0,0
17.10.2017 00:00:00 10,1 9,0 0 0 8 4 SSW 0,0
16.10.2017 23:00:00 10,5 9,4 3 2 7 4 SW 0,0
16.10.2017 22:00:00 12,0 10,9 1 1 8 4 SW 0,0
16.10.2017 21:00:00 12,5 11,4 4 2 11 6 SSW 0,0
16.10.2017 20:00:00 13,0 11,9 11 6 23 12 E -
16.10.2017 19:00:00 14,3 11,8 14 8 19 11 E 0,0
16.10.2017 18:00:00 17,4 11,2 11 6 21 11 ENE 0,0
16.10.2017 17:00:00 23,3 4,8 11 6 23 12 SSE 0,0
16.10.2017 16:00:00 23,6 4,5 14 8 36 19 S 0,0
16.10.2017 15:00:00 23,0 5,0 18 10 44 24 S 0,0
16.10.2017 14:00:00 22,6 5,5 21 11 42 23 S -
16.10.2017 13:00:00 21,7 6,4 19 11 39 21 SSW 0,0
16.10.2017 12:00:00 19,2 5,6 22 12 40 22 S 0,0
16.10.2017 11:00:00 17,7 5,6 20 11 35 19 S 0,0
16.10.2017 10:00:00 16,9 5,1 17 9 29 16 S 0,0
16.10.2017 09:00:00 14,8 4,8 10 5 18 10 SSW 0,0
16.10.2017 08:00:00 13,2 3,6 1 1 17 9 S -
16.10.2017 07:00:00 15,8 4,1 10 5 32 18 S 0,0
16.10.2017 06:00:00 16,6 4,6 16 8 32 17 S 0,0
16.10.2017 05:00:00 17,3 5,3 17 9 38 21 S 0,0
16.10.2017 04:00:00 17,7 5,6 21 11 39 21 S 0,0

tt = Température de l'air
td = dewpoint
ff = Vitesse du vent
fx = gusts
dd = Direction du vent
rr = Quantités de précipitations

stations d'obs. à proximité